Time;durP1;ratioP1;P1;durP2;ratioP2;P2;SDS_P1;SDS_P2;PMS_P1;PMS_P2;Temp;Humidity;BMP_temperature;BMP_pressure;BME280_temperature;BME280_humidity;BME280_pressure;Samples;Min_cycle;Max_cycle;Signal;HPM_P1;HPM_P2
2023/10/07 00:00:26;;;;;;;9.25;8.35;;;;;;;10.13;100.00;97081.69;6309673;22;20006;-84
2023/10/07 00:02:48;;;;;;;;;;;;;;;10.07;100.00;97079.50;6310584;22;20020;-84
2023/10/07 00:05:16;;;;;;;;;;;;;;;9.99;100.00;97075.56;6310075;22;19976;-84
2023/10/07 00:07:44;;;;;;;8.40;7.60;;;;;;;9.99;100.00;97080.84;6311477;22;19911;-84
2023/10/07 00:10:14;;;;;;;8.55;7.80;;;;;;;9.96;100.00;97080.22;6284361;22;20417;-84
2023/10/07 00:12:40;;;;;;;8.68;7.85;;;;;;;9.95;100.00;97074.09;6310385;22;20006;-76
2023/10/07 00:15:15;;;;;;;9.38;8.40;;;;;;;9.90;100.00;97070.94;6309512;22;20401;-84
2023/10/07 00:17:42;;;;;;;11.02;8.10;;;;;;;9.88;100.00;97063.16;6283040;22;20066;-84
2023/10/07 00:20:12;;;;;;;10.38;8.23;;;;;;;9.87;100.00;97066.72;6282951;22;20014;-84
2023/10/07 00:22:41;;;;;;;8.43;7.63;;;;;;;9.88;100.00;97067.59;6309775;22;20002;-84
2023/10/07 00:25:07;;;;;;;10.30;8.05;;;;;;;9.86;100.00;97061.59;6309868;22;19991;-84
2023/10/07 00:27:38;;;;;;;9.32;8.43;;;;;;;9.83;100.00;97077.56;6310410;22;20402;-84
2023/10/07 00:30:16;;;;;;;9.32;8.43;;;;;;;9.77;100.00;97070.09;6309617;22;20074;-84
2023/10/07 00:32:45;;;;;;;8.85;8.05;;;;;;;9.70;100.00;97069.66;6309766;22;20354;-84
2023/10/07 00:35:11;;;;;;;8.98;8.18;;;;;;;9.72;100.00;97057.22;6309239;22;20003;-84
2023/10/07 00:37:43;;;;;;;8.27;7.47;;;;;;;9.72;100.00;97054.59;6309988;22;19995;-84
2023/10/07 00:40:30;;;;;;;8.85;7.90;;;;;;;9.71;100.00;97042.41;6309218;22;20055;-84
2023/10/07 00:42:56;;;;;;;9.48;8.27;;;;;;;9.71;100.00;97030.09;6308796;22;19995;-84
2023/10/07 00:45:24;;;;;;;9.75;8.75;;;;;;;9.72;100.00;97033.56;6309336;22;19999;-84
2023/10/07 00:47:52;;;;;;;8.27;7.50;;;;;;;9.66;100.00;97026.97;6309737;22;19995;-84
2023/10/07 00:50:20;;;;;;;10.43;8.52;;;;;;;9.62;100.00;97017.59;6309944;22;20424;-84
2023/10/07 00:55:29;;;;;;;8.70;7.90;;;;;;;9.55;100.00;97024.19;6309918;22;20015;-84
2023/10/07 00:58:19;;;;;;;9.48;8.27;;;;;;;9.55;100.00;97024.19;6282638;22;20007;-84
2023/10/07 01:00:47;;;;;;;8.88;7.97;;;;;;;9.55;100.00;97013.66;6309156;22;20380;-84
2023/10/07 01:03:19;;;;;;;10.15;8.00;;;;;;;9.58;100.00;97014.31;6309091;22;20019;-84
2023/10/07 01:08:28;;;;;;;8.95;7.93;;;;;;;9.57;100.00;97010.00;6308073;22;20070;-84
2023/10/07 01:13:56;;;;;;;8.90;8.05;;;;;;;9.55;100.00;96995.28;6273236;22;20015;-84
2023/10/07 01:16:31;;;;;;;9.13;8.25;;;;;;;9.51;100.00;96993.81;6309076;22;20074;-84
2023/10/07 01:19:13;;;;;;;9.10;7.93;;;;;;;9.49;100.00;96999.16;6309445;22;19999;-84
2023/10/07 01:21:58;;;;;;;8.82;8.02;;;;;;;9.46;100.00;96994.97;6281979;22;20005;-84
2023/10/07 01:29:59;;;;;;;9.13;8.35;;;;;;;9.37;100.00;97005.25;6309299;22;20493;-84
2023/10/07 01:32:31;;;;;;;8.48;7.68;;;;;;;9.37;100.00;97008.69;6309379;22;19999;-83
2023/10/07 01:35:11;;;;;;;9.50;8.23;;;;;;;9.36;100.00;97009.63;6308024;22;20010;-84
2023/10/07 01:37:50;;;;;;;8.88;8.02;;;;;;;9.32;100.00;97003.75;6282237;22;20317;-84
2023/10/07 01:40:17;;;;;;;8.88;8.18;;;;;;;9.25;100.00;97006.91;6309348;22;19999;-84
2023/10/07 01:42:44;;;;;;;10.73;9.10;;;;;;;9.29;100.00;97005.75;6309385;22;19995;-84
2023/10/07 01:45:22;;;;;;;9.43;8.52;;;;;;;9.30;100.00;96997.78;6309270;22;20346;-84
2023/10/07 01:47:52;;;;;;;9.85;8.85;;;;;;;9.27;100.00;96999.75;6309124;22;20472;-84
2023/10/07 01:50:18;;;;;;;9.45;8.50;;;;;;;9.27;100.00;96997.94;6308888;22;19999;-84
2023/10/07 01:52:48;;;;;;;9.15;8.45;;;;;;;9.26;100.00;96996.25;6282290;22;20278;-83
2023/10/07 01:55:15;;;;;;;8.77;7.97;;;;;;;9.28;100.00;97001.44;6310825;22;20464;-83
2023/10/07 01:57:44;;;;;;;9.15;8.35;;;;;;;9.30;100.00;96994.28;6282148;22;19995;-83
2023/10/07 02:00:11;;;;;;;9.15;8.25;;;;;;;9.30;100.00;96991.66;6310474;22;19999;-83
2023/10/07 02:02:48;;;;;;;9.50;8.55;;;;;;;9.30;100.00;96986.41;6309589;22;20019;-84
2023/10/07 02:05:15;;;;;;;12.50;9.00;;;;;;;9.27;100.00;96986.63;6284090;22;20371;-84
2023/10/07 02:07:43;;;;;;;8.88;8.07;;;;;;;9.25;100.00;96988.50;6311156;22;19998;-84
2023/10/07 02:10:12;;;;;;;9.02;8.13;;;;;;;9.23;100.00;96987.75;6310502;22;20022;-83
2023/10/07 02:12:38;;;;;;;10.02;8.88;;;;;;;9.24;100.00;96981.56;6311608;22;20406;-83
2023/10/07 02:15:19;;;;;;;9.18;8.38;;;;;;;9.17;100.00;96986.38;6310584;22;20436;-83
2023/10/07 02:17:47;;;;;;;9.20;8.40;;;;;;;9.17;100.00;96981.13;6311562;22;19999;-83
2023/10/07 02:20:32;;;;;;;8.52;7.78;;;;;;;9.20;100.00;96977.47;6310134;22;20345;-83
2023/10/07 02:23:04;;;;;;;9.23;8.35;;;;;;;9.19;100.00;96971.34;6308269;22;19999;-83
2023/10/07 02:25:29;;;;;;;9.43;8.43;;;;;;;9.14;100.00;96974.28;6307645;22;20056;-83
2023/10/07 02:27:55;;;;;;;10.27;9.27;;;;;;;9.11;100.00;96969.22;6309753;22;19999;-83
2023/10/07 02:30:21;;;;;;;10.10;9.07;;;;;;;9.19;100.00;96975.78;6282360;22;19999;-83
2023/10/07 02:32:47;;;;;;;11.90;8.68;;;;;;;9.13;100.00;96964.72;6310583;22;20003;-83
2023/10/07 02:35:19;;;;;;;9.95;9.05;;;;;;;9.10;100.00;96964.91;6309879;22;20003;-83
2023/10/07 02:37:49;;;;;;;9.57;8.68;;;;;;;9.07;100.00;96970.38;6283127;22;19999;-83
2023/10/07 02:40:20;;;;;;;9.20;8.30;;;;;;;9.02;100.00;96977.72;6310291;22;20034;-83
2023/10/07 02:42:51;;;;;;;9.88;8.98;;;;;;;8.97;100.00;96969.31;6310317;22;19999;-83
2023/10/07 02:45:28;;;;;;;9.30;8.50;;;;;;;8.99;100.00;96965.63;6310014;22;20006;-83
2023/10/07 02:47:54;;;;;;;11.85;9.43;;;;;;;9.01;100.00;96965.53;6283256;22;20027;-83
2023/10/07 02:50:20;;;;;;;9.65;8.82;;;;;;;9.02;100.00;96967.22;6310286;22;20100;-82
2023/10/07 02:52:46;;;;;;;9.35;8.50;;;;;;;9.00;100.00;96977.81;6309563;22;20006;-83
2023/10/07 02:57:55;;;;;;;8.98;8.18;;;;;;;8.92;100.00;96972.22;6309932;22;19999;-83
2023/10/07 03:00:29;;;;;;;9.15;8.45;;;;;;;8.92;100.00;96980.09;6309797;22;20344;-83
2023/10/07 03:03:48;;;;;;;11.00;9.20;;;;;;;8.87;100.00;96976.94;6309888;22;20015;-83
2023/10/07 03:06:17;;;;;;;8.82;8.02;;;;;;;8.86;100.00;96977.88;6292735;22;20018;-83
2023/10/07 03:08:43;;;;;;;10.85;9.65;;;;;;;8.77;100.00;96965.34;6307949;22;20002;-83
2023/10/07 03:11:12;;;;;;;;;;;;;;;8.74;100.00;96969.84;6310531;22;19995;-83
2023/10/07 03:13:49;;;;;;;10.95;9.05;;;;;;;8.73;100.00;96965.53;6309997;22;19903;-83
2023/10/07 03:19:07;;;;;;;12.90;9.55;;;;;;;8.71;100.00;96971.81;6309765;22;20010;-83
2023/10/07 03:24:13;;;;;;;10.10;9.10;;;;;;;8.74;100.00;96961.16;6308198;22;20027;-83
2023/10/07 03:26:46;;;;;;;10.35;9.45;;;;;;;8.77;100.00;96966.19;6307289;22;20227;-83
2023/10/07 03:29:30;;;;;;;12.43;9.30;;;;;;;8.81;100.00;96967.69;6309427;22;20013;-83
2023/10/07 03:31:59;;;;;;;9.70;8.80;;;;;;;8.80;100.00;96960.75;6308795;22;20003;-82
2023/10/07 03:34:25;;;;;;;9.23;8.32;;;;;;;8.80;100.00;96950.25;6309968;22;20038;-83
2023/10/07 03:42:18;;;;;;;10.30;9.25;;;;;;;8.65;100.00;96952.09;6309990;22;20018;-83
2023/10/07 03:44:46;;;;;;;9.63;8.93;;;;;;;8.64;100.00;96939.03;6309296;22;19995;-83
2023/10/07 03:47:12;;;;;;;10.15;9.18;;;;;;;8.63;100.00;96942.59;6309766;22;20066;-83
2023/10/07 03:49:40;;;;;;;9.63;8.82;;;;;;;8.63;100.00;96935.59;6309506;22;20003;-82
2023/10/07 03:52:07;;;;;;;10.25;9.35;;;;;;;8.63;100.00;96932.09;6309752;22;20023;-83
2023/10/07 03:54:34;;;;;;;9.77;8.80;;;;;;;8.63;100.00;96932.09;6308994;22;20025;-82
2023/10/07 03:57:03;;;;;;;10.25;9.25;;;;;;;8.56;100.00;96927.25;6282144;22;20069;-83
2023/10/07 03:59:34;;;;;;;10.10;9.20;;;;;;;8.58;100.00;96929.78;6307980;22;20451;-82
2023/10/07 04:04:58;;;;;;;10.48;9.35;;;;;;;8.54;100.00;96925.66;6309564;22;20030;-83
2023/10/07 04:07:24;;;;;;;10.35;9.43;;;;;;;8.50;100.00;96925.00;6282401;22;20010;-82
2023/10/07 04:09:51;;;;;;;12.57;9.55;;;;;;;8.48;100.00;96924.22;6309413;22;20018;-82
2023/10/07 04:12:16;;;;;;;11.68;10.48;;;;;;;8.48;100.00;96924.22;6309315;22;19995;-82
2023/10/07 04:14:42;;;;;;;22.95;19.52;;;;;;;8.48;100.00;96924.22;6309514;22;20003;-82
2023/10/07 04:17:14;;;;;;;13.88;12.50;;;;;;;8.51;100.00;96926.72;6310400;22;20007;-82
2023/10/07 04:19:42;;;;;;;11.68;10.57;;;;;;;8.49;100.00;96935.59;6310625;22;19999;-81
2023/10/07 04:22:08;;;;;;;10.40;9.50;;;;;;;8.43;100.00;96923.69;6283372;22;19999;-82
2023/10/07 04:24:38;;;;;;;10.95;9.38;;;;;;;8.44;100.00;96923.63;6309958;22;20019;-82
2023/10/07 04:27:05;;;;;;;10.77;9.77;;;;;;;8.42;100.00;96930.75;6309523;22;20420;-82
2023/10/07 04:29:31;;;;;;;10.60;9.75;;;;;;;8.40;100.00;96916.88;6282137;22;19999;-82
2023/10/07 04:31:58;;;;;;;10.82;9.35;;;;;;;8.35;100.00;96936.47;6310003;22;20066;-82
2023/10/07 04:34:26;;;;;;;10.55;8.60;;;;;;;8.28;100.00;96928.97;6309652;22;19999;-82
2023/10/07 04:39:27;;;;;;;10.48;9.48;;;;;;;8.31;100.00;96935.81;6310257;22;20003;-81
2023/10/07 04:41:59;;;;;;;9.40;8.50;;;;;;;8.32;100.00;96933.13;6309414;22;19999;-82
2023/10/07 04:50:05;;;;;;;9.73;8.85;;;;;;;8.21;100.00;96925.06;6312499;22;20018;-82
2023/10/07 04:52:31;;;;;;;9.85;9.00;;;;;;;8.17;100.00;96924.41;6310861;22;19995;-82
2023/10/07 04:55:01;;;;;;;10.77;9.68;;;;;;;8.21;100.00;96922.44;6310156;22;20006;-82
2023/10/07 05:03:01;;;;;;;9.63;8.70;;;;;;;8.26;100.00;96904.63;6309401;22;20019;-82
2023/10/07 05:05:33;;;;;;;10.55;9.25;;;;;;;8.24;100.00;96909.13;6309782;22;20155;-82
2023/10/07 05:08:10;;;;;;;9.95;9.05;;;;;;;8.20;100.00;96910.25;6308733;22;19999;-81
2023/10/07 05:10:41;;;;;;;12.10;9.77;;;;;;;8.20;100.00;96907.63;6308438;22;20018;-82
2023/10/07 05:13:07;;;;;;;12.82;10.15;;;;;;;8.20;100.00;96910.25;6307528;22;20350;-81
2023/10/07 05:15:34;;;;;;;11.20;10.05;;;;;;;8.18;100.00;96912.16;6309278;22;20450;-82
2023/10/07 05:18:01;;;;;;;11.70;9.50;;;;;;;8.17;100.00;96915.72;6281274;22;20026;-82
2023/10/07 05:20:29;;;;;;;12.90;9.38;;;;;;;8.14;100.00;96921.97;6309257;22;20322;-81
2023/10/07 05:22:55;;;;;;;9.98;9.07;;;;;;;8.13;100.00;96917.66;6308951;22;20076;-81
2023/10/07 05:25:21;;;;;;;11.57;10.05;;;;;;;8.07;100.00;96920.69;6281785;22;19991;-82
2023/10/07 05:27:50;;;;;;;11.45;9.82;;;;;;;8.03;100.00;96922.66;6309188;22;20014;-82
2023/10/07 05:30:16;;;;;;;10.27;9.07;;;;;;;8.00;100.00;96925.47;6310591;22;20014;-81
2023/10/07 05:32:42;;;;;;;11.15;9.98;;;;;;;7.95;100.00;96914.44;6309994;22;20026;-81
2023/10/07 05:35:08;;;;;;;16.35;10.02;;;;;;;7.92;100.00;96919.88;6310807;22;20000;-81
2023/10/07 05:37:34;;;;;;;11.82;9.68;;;;;;;7.92;100.00;96925.13;6311042;22;20401;-81
2023/10/07 05:40:02;;;;;;;10.88;9.88;;;;;;;7.93;100.00;96924.16;6283552;22;20305;-81
2023/10/07 05:42:27;;;;;;;10.52;9.52;;;;;;;7.93;100.00;96923.31;6310556;22;20003;-81
2023/10/07 05:44:53;;;;;;;10.82;9.82;;;;;;;7.94;100.00;96927.63;6310761;22;20010;-81
2023/10/07 05:47:18;;;;;;;10.57;9.60;;;;;;;7.94;100.00;96930.25;6282730;22;20003;-81
2023/10/07 05:49:44;;;;;;;10.52;9.52;;;;;;;7.93;100.00;96934.66;6310737;22;20002;-81
2023/10/07 05:52:10;;;;;;;10.57;9.55;;;;;;;7.96;100.00;96937.09;6310868;22;20527;-81
2023/10/07 05:54:35;;;;;;;10.75;9.65;;;;;;;8.00;100.00;96940.38;6310464;22;19999;-81
2023/10/07 05:57:05;;;;;;;9.40;8.60;;;;;;;7.98;100.00;96945.69;6309807;22;20344;-82
2023/10/07 05:59:34;;;;;;;11.25;10.07;;;;;;;7.94;100.00;96946.84;6310849;22;19999;-81
2023/10/07 06:02:05;;;;;;;10.23;9.23;;;;;;;7.93;100.00;96952.16;6310448;22;20290;-81
2023/10/07 06:04:31;;;;;;;10.73;9.40;;;;;;;7.98;100.00;96958.00;6309578;22;20011;-81
2023/10/07 06:06:57;;;;;;;12.45;10.40;;;;;;;7.98;100.00;96952.75;6310749;22;20010;-81
2023/10/07 06:09:23;;;;;;;10.60;9.60;;;;;;;7.98;100.00;96960.63;6310206;22;20368;-82
2023/10/07 06:11:48;;;;;;;10.57;9.57;;;;;;;7.96;100.00;96960.69;6282942;22;20029;-81
2023/10/07 06:14:18;;;;;;;11.23;10.13;;;;;;;7.95;100.00;96956.38;6309847;22;20434;-81
2023/10/07 06:16:44;;;;;;;10.38;9.30;;;;;;;7.94;100.00;96961.72;6282880;22;20052;-81
2023/10/07 06:19:13;;;;;;;11.23;10.05;;;;;;;7.98;100.00;96963.22;6310816;22;19999;-81
2023/10/07 06:21:50;;;;;;;10.57;9.55;;;;;;;7.99;100.00;96964.91;6284115;22;19995;-80
2023/10/07 06:24:21;;;;;;;10.38;9.30;;;;;;;7.99;100.00;96963.13;6311114;22;20010;-81
2023/10/07 06:26:53;;;;;;;10.98;9.98;;;;;;;7.96;100.00;96965.94;6310566;22;20313;-81
2023/10/07 06:29:19;;;;;;;10.38;9.35;;;;;;;7.98;100.00;96952.75;6309752;22;20166;-81
2023/10/07 06:34:32;;;;;;;9.73;8.88;;;;;;;8.02;100.00;96959.47;6310912;22;20482;-81
2023/10/07 06:36:59;;;;;;;10.35;9.25;;;;;;;8.02;100.00;96962.94;6310647;22;20897;-81
2023/10/07 06:39:27;;;;;;;10.73;9.65;;;;;;;8.02;100.00;96957.69;6311656;22;20003;-81
2023/10/07 06:41:57;;;;;;;10.20;9.20;;;;;;;8.01;100.00;96963.88;6311357;22;20051;-81
2023/10/07 06:44:24;;;;;;;9.27;8.48;;;;;;;8.03;100.00;96966.41;6311528;22;20479;-81
2023/10/07 06:46:55;;;;;;;10.40;9.30;;;;;;;8.08;100.00;96968.75;6310877;22;20037;-81
2023/10/07 06:49:22;;;;;;;9.80;8.82;;;;;;;8.07;100.00;96967.91;6311543;22;20325;-81
2023/10/07 06:51:56;;;;;;;9.80;8.82;;;;;;;8.03;100.00;96969.84;6311071;22;20326;-81
2023/10/07 06:54:34;;;;;;;9.32;6.80;;;;;;;8.05;100.00;96980.28;6312531;22;20003;-81
2023/10/07 06:57:04;;;;;;;9.05;8.10;;;;;;;8.07;100.00;96983.63;6311708;22;20006;-81
2023/10/07 06:59:29;;;;;;;9.77;8.77;;;;;;;8.04;100.00;96986.44;6311198;22;20053;-81
2023/10/07 07:01:56;;;;;;;10.20;9.02;;;;;;;8.05;100.00;96992.53;6310293;22;20003;-81
2023/10/07 07:04:22;;;;;;;10.30;9.25;;;;;;;8.06;100.00;96994.22;6283759;22;20071;-81
2023/10/07 07:07:10;;;;;;;10.75;9.65;;;;;;;8.08;100.00;97001.06;6310463;22;20463;-81
2023/10/07 07:09:50;;;;;;;17.45;15.75;;;;;;;8.14;100.00;97005.09;6282850;22;20529;-81
2023/10/07 07:12:18;;;;;;;15.02;13.57;;;;;;;8.05;100.00;97006.50;6259181;22;19998;-81
2023/10/07 07:15:06;;;;;;;15.77;12.35;;;;;;;8.04;100.00;97010.06;6310698;22;20018;-81
2023/10/07 07:22:36;;;;;;;10.10;9.20;;;;;;;8.13;100.00;97008.66;6310093;22;20033;-82
2023/10/07 07:25:05;;;;;;;10.27;9.30;;;;;;;8.16;100.00;97013.72;6311259;22;20414;-80
2023/10/07 07:27:35;;;;;;;15.50;11.68;;;;;;;8.20;100.00;97015.19;6310880;22;20002;-80
2023/10/07 07:30:04;;;;;;;16.45;13.20;;;;;;;8.26;100.00;97020.06;6310649;22;19999;-83
2023/10/07 07:32:32;;;;;;;29.50;26.65;;;;;;;8.27;100.00;97027.00;6311079;22;19999;-80
2023/10/07 07:35:02;;;;;;;12.38;10.48;;;;;;;8.33;100.00;97025.78;6283762;22;20078;-81
2023/10/07 07:37:31;;;;;;;11.38;9.60;;;;;;;8.44;100.00;97031.22;6310023;22;20308;-80
2023/10/07 07:39:59;;;;;;;13.32;11.48;;;;;;;8.60;100.00;97027.63;6310816;22;20023;-80
2023/10/07 07:42:27;;;;;;;19.23;14.40;;;;;;;8.75;100.00;97015.34;6309774;22;20041;-80
2023/10/07 07:44:57;;;;;;;14.48;12.48;;;;;;;8.93;100.00;97029.06;6309463;22;20010;-80
2023/10/07 07:47:23;;;;;;;10.07;9.18;;;;;;;9.10;100.00;97016.63;6310542;22;20073;-81
2023/10/07 07:49:51;;;;;;;11.20;10.25;;;;;;;9.24;100.00;97021.81;6282807;22;20100;-80
2023/10/07 07:52:16;;;;;;;11.30;8.88;;;;;;;9.35;100.00;97013.22;6310150;22;19999;-81
2023/10/07 07:54:42;;;;;;;12.27;11.02;;;;;;;9.49;100.00;97014.09;6309548;22;20018;-80
2023/10/07 07:57:08;;;;;;;13.15;11.95;;;;;;;9.65;100.00;97020.00;6310109;22;20010;-81
2023/10/07 07:59:33;;;;;;;18.45;16.77;;;;;;;9.79;100.00;97016.44;6308303;22;19999;-81
2023/10/07 08:02:17;;;;;;;16.35;14.75;;;;;;;9.86;100.00;97016.88;6308537;22;20109;-81
2023/10/07 08:04:48;;;;;;;13.13;11.85;;;;;;;9.95;100.00;97018.84;6280346;22;20027;-82
2023/10/07 08:07:18;;;;;;;10.32;9.07;;;;;;;10.03;100.00;97016.53;6307353;22;20393;-82
2023/10/07 08:09:46;;;;;;;10.15;8.25;;;;;;;10.22;100.00;97023.16;6308473;22;19995;-81
2023/10/07 08:12:18;;;;;;;8.25;7.55;;;;;;;10.44;100.00;97024.31;6308030;22;20003;-80
2023/10/07 08:14:50;;;;;;;10.25;7.53;;;;;;;10.57;100.00;97033.03;6280136;22;20011;-83
2023/10/07 08:17:19;;;;;;;9.32;8.43;;;;;;;10.74;100.00;97031.00;6282215;22;20481;-84
2023/10/07 08:19:49;;;;;;;9.90;8.90;;;;;;;10.83;100.00;97040.88;6308466;22;20005;-81
2023/10/07 08:22:19;;;;;;;9.95;8.20;;;;;;;10.92;100.00;97049.03;6307134;22;19999;-81
2023/10/07 08:24:45;;;;;;;10.18;7.90;;;;;;;10.99;100.00;97060.84;6303273;22;20028;-84
2023/10/07 08:27:43;;;;;;;8.07;7.35;;;;;;;11.02;100.00;97064.06;6307804;22;20003;-85
2023/10/07 08:30:05;;;;;;;8.30;7.40;;;;;;;11.08;100.00;97068.06;6304759;22;20413;-81
2023/10/07 08:32:41;;;;;;;7.60;6.90;;;;;;;11.18;100.00;97079.66;6307280;22;19995;-85
2023/10/07 08:35:18;;;;;;;7.25;6.55;;;;;;;11.31;100.00;97087.50;6306740;22;20010;-83
2023/10/07 08:37:47;;;;;;;9.80;6.90;;;;;;;11.40;100.00;97098.31;6304210;22;20116;-85
2023/10/07 08:40:26;;;;;;;9.35;6.55;;;;;;;11.48;100.00;97103.03;6305023;22;20041;-81
2023/10/07 08:42:56;;;;;;;6.50;5.90;;;;;;;11.56;100.00;97098.03;6304803;22;20014;-79
2023/10/07 08:45:25;;;;;;;6.53;5.88;;;;;;;11.64;100.00;97082.47;6304851;22;20006;-82
2023/10/07 08:48:08;;;;;;;7.75;5.50;;;;;;;11.76;100.00;97067.53;6306044;22;20006;-82
2023/10/07 08:50:55;;;;;;;6.30;5.80;;;;;;;11.87;100.00;97037.69;6307308;22;19999;-82
2023/10/07 08:53:23;;;;;;;8.00;6.25;;;;;;;11.97;100.00;97020.19;6308607;22;20000;-81
2023/10/07 08:55:53;;;;;;;7.30;5.60;;;;;;;12.03;100.00;97014.44;6302772;22;20744;-82
2023/10/07 08:58:22;;;;;;;8.32;7.53;;;;;;;12.18;100.00;97036.22;6305633;22;19999;-81
2023/10/07 09:00:50;;;;;;;9.25;8.35;;;;;;;12.35;100.00;97078.09;6305686;22;20060;-82
2023/10/07 09:03:19;;;;;;;11.30;9.25;;;;;;;12.45;100.00;97074.63;6254597;22;1191224;-82
2023/10/07 09:05:48;;;;;;;8.30;6.57;;;;;;;12.51;100.00;97061.88;6309535;22;20132;-82
2023/10/07 09:08:15;;;;;;;7.18;5.75;;;;;;;12.56;100.00;97055.28;6307656;22;20003;-82
2023/10/07 09:10:45;;;;;;;7.53;5.70;;;;;;;12.62;100.00;97019.63;6307557;22;20401;-82
2023/10/07 09:13:27;;;;;;;7.70;5.53;;;;;;;12.66;100.00;97012.28;6305925;22;20193;-81
2023/10/07 09:15:59;;;;;;;6.07;5.47;;;;;;;12.73;100.00;96995.00;6278366;22;20046;-82
2023/10/07 09:18:37;;;;;;;6.82;6.22;;;;;;;12.75;100.00;96999.16;6306540;22;20063;-83
2023/10/07 09:21:09;;;;;;;7.25;6.13;;;;;;;12.83;100.00;97014.41;6308597;22;20003;-82
2023/10/07 09:23:43;;;;;;;6.95;6.13;;;;;;;13.00;100.00;97033.38;6310000;22;20113;-82
2023/10/07 09:26:22;;;;;;;7.60;5.90;;;;;;;13.17;100.00;97027.56;6282209;22;20128;-82
2023/10/07 09:29:14;;;;;;;7.15;5.80;;;;;;;13.37;100.00;97021.56;6282234;22;20342;-82
2023/10/07 09:31:42;;;;;;;6.85;6.20;;;;;;;13.49;100.00;96975.63;6310157;22;19996;-80
2023/10/07 09:34:29;;;;;;;7.78;5.65;;;;;;;13.60;100.00;96959.69;6309812;22;20111;-81
2023/10/07 09:36:55;;;;;;;7.93;5.65;;;;;;;13.74;100.00;96962.97;6309507;22;20503;-82
2023/10/07 09:42:25;;;;;;;6.47;5.88;;;;;;;13.85;100.00;96954.94;6308932;22;20010;-81
2023/10/07 09:44:55;;;;;;;6.22;5.72;;;;;;;13.95;100.00;96956.81;6309714;22;19995;-81
2023/10/07 09:47:22;;;;;;;6.60;6.00;;;;;;;14.01;100.00;96959.75;6309237;22;20006;-82
2023/10/07 09:49:48;;;;;;;5.70;5.20;;;;;;;14.09;100.00;96937.91;6309598;22;20003;-83
2023/10/07 09:52:17;;;;;;;6.50;5.90;;;;;;;14.11;100.00;96932.47;6309051;22;19999;-82
2023/10/07 09:55:19;;;;;;;23.70;7.82;;;;;;;14.16;100.00;96930.25;6308189;22;20153;-83
2023/10/07 09:58:03;;;;;;;8.93;6.78;;;;;;;14.23;100.00;96927.91;6282706;22;20084;-83
2023/10/07 10:03:30;;;;;;;6.00;5.47;;;;;;;14.59;100.00;96936.25;6308041;22;20033;-81
2023/10/07 10:06:33;;;;;;;6.55;5.85;;;;;;;14.78;100.00;96935.47;6282900;22;20006;-80
2023/10/07 10:09:09;;;;;;;6.65;5.32;;;;;;;14.88;100.00;96933.66;6310133;22;20002;-81
2023/10/07 10:16:53;;;;;;;5.97;5.43;;;;;;;15.17;100.00;96918.72;6310119;22;20014;-82
2023/10/07 10:19:35;;;;;;;6.03;5.50;;;;;;;15.25;100.00;96918.00;6311237;22;19995;-84
2023/10/07 10:22:12;;;;;;;6.20;5.60;;;;;;;15.33;100.00;96916.34;6311216;22;20068;-81
2023/10/07 10:24:43;;;;;;;6.10;5.60;;;;;;;15.43;100.00;96916.31;6310023;22;20001;-83
2023/10/07 10:27:10;;;;;;;8.27;6.00;;;;;;;15.51;100.00;96912.09;6305735;22;20019;-83
2023/10/07 10:29:52;;;;;;;7.82;6.32;;;;;;;15.60;100.00;96911.25;6309366;22;19999;-77
2023/10/07 10:32:39;;;;;;;6.13;5.43;;;;;;;15.73;100.00;96910.94;6309915;22;19999;-77
2023/10/07 10:35:06;;;;;;;7.75;5.20;;;;;;;15.75;100.00;96907.16;6309901;22;20052;-78
2023/10/07 10:37:32;;;;;;;6.00;5.25;;;;;;;15.83;100.00;96910.91;6310913;22;20029;-77
2023/10/07 10:40:05;;;;;;;18.38;6.90;;;;;;;15.95;100.00;96908.94;6310552;22;20021;-77
2023/10/07 10:42:47;;;;;;;5.70;5.03;;;;;;;16.01;100.00;96914.47;6309924;22;20007;-77
2023/10/07 10:45:18;;;;;;;11.18;5.45;;;;;;;16.15;100.00;96922.97;6308127;22;20019;-77
2023/10/07 10:47:50;;;;;;;6.15;5.55;;;;;;;16.31;100.00;96925.84;6309574;22;20017;-77
2023/10/07 10:50:17;;;;;;;7.85;5.68;;;;;;;16.48;100.00;96926.03;6307860;22;19995;-76
2023/10/07 10:52:48;;;;;;;6.93;5.95;;;;;;;16.65;100.00;96916.41;6310463;22;20074;-77
2023/10/07 10:55:15;;;;;;;6.80;5.15;;;;;;;16.81;100.00;96914.91;6309136;22;20371;-87
2023/10/07 10:57:41;;;;;;;6.65;5.28;;;;;;;16.95;100.00;96913.53;6309425;22;19996;-77
2023/10/07 11:00:19;;;;;;;6.72;6.13;;;;;;;17.11;100.00;96907.56;6305626;22;20115;-78
2023/10/07 11:02:55;;;;;;;6.78;5.47;;;;;;;17.26;100.00;96902.50;6304068;22;20509;-78
2023/10/07 11:05:21;;;;;;;6.35;5.70;;;;;;;17.38;100.00;96890.63;6308650;22;20018;-77
2023/10/07 11:07:49;;;;;;;6.60;6.00;;;;;;;17.50;100.00;96883.22;6306933;22;20003;-76
2023/10/07 11:10:22;;;;;;;5.82;5.20;;;;;;;17.58;100.00;96887.78;6308149;22;20081;-77
2023/10/07 11:12:56;;;;;;;6.70;6.03;;;;;;;17.69;100.00;96889.34;6279114;22;19995;-76
2023/10/07 11:15:26;;;;;;;5.68;5.18;;;;;;;17.78;100.00;96890.19;6309924;22;20015;-82
2023/10/07 11:17:56;;;;;;;5.93;5.25;;;;;;;17.85;100.00;96888.59;6309495;22;20431;-78
2023/10/07 11:20:32;;;;;;;6.40;5.80;;;;;;;17.94;100.00;96874.31;6308008;22;20003;-78
2023/10/07 11:22:58;;;;;;;6.82;5.38;;;;;;;18.02;100.00;96882.38;6312945;22;20006;-78
2023/10/07 11:25:25;;;;;;;8.43;5.65;;;;;;;18.10;100.00;96872.75;6283182;22;19995;-79
2023/10/07 11:27:54;;;;;;;5.85;5.35;;;;;;;18.16;100.00;96883.59;6310158;22;20007;-79
2023/10/07 11:30:21;;;;;;;6.18;5.47;;;;;;;18.19;100.00;96869.09;6308268;22;19999;-80
2023/10/07 11:32:47;;;;;;;5.45;5.00;;;;;;;18.23;100.00;96880.28;6314293;22;20081;-80
2023/10/07 11:35:20;;;;;;;6.70;5.97;;;;;;;18.28;100.00;96876.16;6313125;22;20015;-78
2023/10/07 11:37:49;;;;;;;5.90;5.22;;;;;;;18.36;100.00;96871.84;6309328;22;20290;-78
2023/10/07 11:40:19;;;;;;;6.70;5.30;;;;;;;18.42;100.00;96865.84;6309623;22;19995;-77
2023/10/07 11:42:45;;;;;;;6.30;5.63;;;;;;;18.56;100.00;96867.03;6310164;22;20051;-77
2023/10/07 11:45:11;;;;;;;6.80;5.60;;;;;;;18.61;100.00;96854.88;6281523;22;20003;-79
2023/10/07 11:47:36;;;;;;;5.95;5.25;;;;;;;18.67;100.00;96863.22;6309497;22;20006;-78
2023/10/07 11:50:04;;;;;;;6.55;5.82;;;;;;;18.73;100.00;96862.59;6310782;22;20102;-78
2023/10/07 11:52:31;;;;;;;5.38;4.97;;;;;;;18.83;100.00;96863.25;6309067;22;19999;-79
2023/10/07 11:54:57;;;;;;;7.57;5.43;;;;;;;18.83;100.00;96852.56;6309523;22;20389;-79
2023/10/07 11:57:23;;;;;;;6.78;5.85;;;;;;;18.83;100.00;96847.25;6308976;22;20057;-78
2023/10/07 11:59:48;;;;;;;5.75;5.25;;;;;;;18.87;100.00;96851.25;6309915;22;20006;-78
2023/10/07 12:02:14;;;;;;;5.80;5.20;;;;;;;18.92;100.00;96850.75;6309285;22;20006;-78
2023/10/07 12:04:44;;;;;;;5.85;5.35;;;;;;;19.00;100.00;96844.63;6309467;22;19995;-84
2023/10/07 12:07:14;;;;;;;7.25;5.60;;;;;;;18.99;100.00;96840.28;6309920;22;20010;-82
2023/10/07 12:09:39;;;;;;;5.72;5.15;;;;;;;18.94;100.00;96832.72;6309195;22;20047;-81
2023/10/07 12:12:08;;;;;;;5.68;5.18;;;;;;;18.94;100.00;96834.59;6309022;22;20415;-78
2023/10/07 12:14:33;;;;;;;5.85;5.20;;;;;;;18.98;100.00;96830.56;6310300;22;20070;-76
2023/10/07 12:16:59;;;;;;;5.75;5.25;;;;;;;18.98;100.00;96827.91;6307901;22;20010;-77
2023/10/07 12:19:25;;;;;;;5.75;5.25;;;;;;;19.09;100.00;96829.44;6282855;22;20058;-77
2023/10/07 12:21:52;;;;;;;6.82;5.30;;;;;;;19.28;100.00;96828.25;6305426;22;20006;-76
2023/10/07 12:24:18;;;;;;;6.03;5.18;;;;;;;19.51;100.00;96838.22;6309107;22;20004;-76
2023/10/07 12:26:47;;;;;;;5.70;5.18;;;;;;;19.52;100.00;96835.38;6282386;22;20013;-76
2023/10/07 12:29:13;;;;;;;6.07;5.22;;;;;;;19.63;100.00;96831.50;6281155;22;19999;-76
2023/10/07 12:31:40;;;;;;;6.43;5.00;;;;;;;19.74;100.00;96827.66;6310063;22;19999;-76
2023/10/07 12:34:08;;;;;;;8.50;5.00;;;;;;;19.83;100.00;96831.13;6309609;22;19995;-76
2023/10/07 12:36:33;;;;;;;6.30;5.53;;;;;;;19.82;100.00;96830.28;6309561;22;20007;-76
2023/10/07 12:38:58;;;;;;;5.60;5.10;;;;;;;19.94;100.00;96836.09;6309614;22;20309;-76
2023/10/07 12:41:24;;;;;;;6.47;5.38;;;;;;;19.92;100.00;96840.78;6309906;22;20283;-76
2023/10/07 12:43:49;;;;;;;6.75;5.03;;;;;;;20.01;100.00;96837.09;6281840;22;20440;-76